sensor_id;sensor_type;location;lat;lon;timestamp;P1;durP1;ratioP1;P2;durP2;ratioP2
22421;SDS011;11378;51.642;7.668;2022-12-05T00:01:33;6.72;;;4.90;;
22421;SDS011;11378;51.642;7.668;2022-12-05T00:04:01;7.47;;;5.13;;
22421;SDS011;11378;51.642;7.668;2022-12-05T00:06:28;7.13;;;5.00;;
22421;SDS011;11378;51.642;7.668;2022-12-05T00:08:55;6.90;;;4.88;;
22421;SDS011;11378;51.642;7.668;2022-12-05T00:11:23;7.22;;;4.78;;
22421;SDS011;11378;51.642;7.668;2022-12-05T00:13:50;6.97;;;4.50;;
22421;SDS011;11378;51.642;7.668;2022-12-05T00:16:18;6.03;;;4.70;;
22421;SDS011;11378;51.642;7.668;2022-12-05T00:18:45;7.93;;;5.28;;
22421;SDS011;11378;51.642;7.668;2022-12-05T00:21:22;5.93;;;4.35;;
22421;SDS011;11378;51.642;7.668;2022-12-05T00:23:48;6.32;;;4.80;;
22421;SDS011;11378;51.642;7.668;2022-12-05T00:26:15;6.70;;;4.70;;
22421;SDS011;11378;51.642;7.668;2022-12-05T00:28:42;7.20;;;5.35;;
22421;SDS011;11378;51.642;7.668;2022-12-05T00:31:13;6.65;;;4.70;;
22421;SDS011;11378;51.642;7.668;2022-12-05T00:33:40;6.80;;;4.65;;
22421;SDS011;11378;51.642;7.668;2022-12-05T00:36:11;6.38;;;4.55;;
22421;SDS011;11378;51.642;7.668;2022-12-05T00:38:37;5.75;;;4.30;;
22421;SDS011;11378;51.642;7.668;2022-12-05T00:41:05;6.32;;;4.38;;
22421;SDS011;11378;51.642;7.668;2022-12-05T00:43:31;7.43;;;5.00;;
22421;SDS011;11378;51.642;7.668;2022-12-05T00:46:08;7.30;;;4.82;;
22421;SDS011;11378;51.642;7.668;2022-12-05T00:48:34;6.13;;;4.55;;
22421;SDS011;11378;51.642;7.668;2022-12-05T00:51:02;6.60;;;5.00;;
22421;SDS011;11378;51.642;7.668;2022-12-05T00:53:29;6.63;;;5.07;;
22421;SDS011;11378;51.642;7.668;2022-12-05T00:55:56;8.68;;;5.50;;
22421;SDS011;11378;51.642;7.668;2022-12-05T00:58:22;6.55;;;4.70;;
22421;SDS011;11378;51.642;7.668;2022-12-05T01:00:49;6.60;;;4.75;;
22421;SDS011;11378;51.642;7.668;2022-12-05T01:03:15;8.10;;;5.05;;
22421;SDS011;11378;51.642;7.668;2022-12-05T01:05:41;6.07;;;4.53;;
22421;SDS011;11378;51.642;7.668;2022-12-05T01:08:08;7.10;;;4.95;;
22421;SDS011;11378;51.642;7.668;2022-12-05T01:10:34;6.55;;;4.78;;
22421;SDS011;11378;51.642;7.668;2022-12-05T01:13:00;7.20;;;5.00;;
22421;SDS011;11378;51.642;7.668;2022-12-05T01:15:27;6.43;;;4.90;;
22421;SDS011;11378;51.642;7.668;2022-12-05T01:17:53;6.55;;;4.55;;
22421;SDS011;11378;51.642;7.668;2022-12-05T01:20:20;6.32;;;4.57;;
22421;SDS011;11378;51.642;7.668;2022-12-05T01:22:46;7.20;;;4.70;;
22421;SDS011;11378;51.642;7.668;2022-12-05T01:25:12;6.57;;;4.68;;
22421;SDS011;11378;51.642;7.668;2022-12-05T01:27:39;7.90;;;5.10;;
22421;SDS011;11378;51.642;7.668;2022-12-05T01:30:05;8.40;;;4.90;;
22421;SDS011;11378;51.642;7.668;2022-12-05T01:32:32;6.15;;;4.53;;
22421;SDS011;11378;51.642;7.668;2022-12-05T01:34:58;6.78;;;4.97;;
22421;SDS011;11378;51.642;7.668;2022-12-05T01:37:24;7.35;;;5.13;;
22421;SDS011;11378;51.642;7.668;2022-12-05T01:39:51;6.75;;;4.80;;
22421;SDS011;11378;51.642;7.668;2022-12-05T01:42:17;6.85;;;5.07;;
22421;SDS011;11378;51.642;7.668;2022-12-05T01:47:14;7.97;;;4.63;;
22421;SDS011;11378;51.642;7.668;2022-12-05T01:49:41;6.45;;;4.68;;
22421;SDS011;11378;51.642;7.668;2022-12-05T01:52:09;6.50;;;4.85;;
22421;SDS011;11378;51.642;7.668;2022-12-05T01:54:37;7.15;;;4.78;;
22421;SDS011;11378;51.642;7.668;2022-12-05T01:57:04;6.53;;;4.28;;
22421;SDS011;11378;51.642;7.668;2022-12-05T01:59:33;8.30;;;5.28;;
22421;SDS011;11378;51.642;7.668;2022-12-05T02:02:00;7.10;;;4.97;;
22421;SDS011;11378;51.642;7.668;2022-12-05T02:04:27;7.15;;;4.68;;
22421;SDS011;11378;51.642;7.668;2022-12-05T02:06:54;6.63;;;4.47;;
22421;SDS011;11378;51.642;7.668;2022-12-05T02:09:21;7.38;;;4.80;;
22421;SDS011;11378;51.642;7.668;2022-12-05T02:12:06;5.88;;;4.13;;
22421;SDS011;11378;51.642;7.668;2022-12-05T02:14:55;6.13;;;4.75;;
22421;SDS011;11378;51.642;7.668;2022-12-05T02:20:14;6.20;;;4.47;;
22421;SDS011;11378;51.642;7.668;2022-12-05T02:28:04;6.55;;;4.60;;
22421;SDS011;11378;51.642;7.668;2022-12-05T02:30:37;6.25;;;4.45;;
22421;SDS011;11378;51.642;7.668;2022-12-05T02:43:33;7.18;;;4.97;;
22421;SDS011;11378;51.642;7.668;2022-12-05T02:46:04;5.95;;;3.83;;
22421;SDS011;11378;51.642;7.668;2022-12-05T02:48:33;5.63;;;4.30;;
22421;SDS011;11378;51.642;7.668;2022-12-05T02:51:00;5.57;;;4.18;;
22421;SDS011;11378;51.642;7.668;2022-12-05T02:53:27;6.20;;;4.28;;
22421;SDS011;11378;51.642;7.668;2022-12-05T02:55:55;6.95;;;4.43;;
22421;SDS011;11378;51.642;7.668;2022-12-05T02:58:23;6.32;;;4.30;;
22421;SDS011;11378;51.642;7.668;2022-12-05T03:00:52;6.00;;;4.43;;
22421;SDS011;11378;51.642;7.668;2022-12-05T03:03:19;6.43;;;4.38;;
22421;SDS011;11378;51.642;7.668;2022-12-05T03:06:08;6.63;;;4.72;;
22421;SDS011;11378;51.642;7.668;2022-12-05T03:09:34;5.95;;;4.22;;
22421;SDS011;11378;51.642;7.668;2022-12-05T03:11:29;5.88;;;4.43;;
22421;SDS011;11378;51.642;7.668;2022-12-05T03:13:57;6.15;;;4.35;;
22421;SDS011;11378;51.642;7.668;2022-12-05T03:16:29;6.32;;;4.70;;
22421;SDS011;11378;51.642;7.668;2022-12-05T03:19:00;5.40;;;4.25;;
22421;SDS011;11378;51.642;7.668;2022-12-05T03:24:13;6.10;;;4.45;;
22421;SDS011;11378;51.642;7.668;2022-12-05T03:29:28;5.43;;;4.10;;
22421;SDS011;11378;51.642;7.668;2022-12-05T03:34:46;6.53;;;4.37;;
22421;SDS011;11378;51.642;7.668;2022-12-05T03:37:18;7.03;;;4.55;;
22421;SDS011;11378;51.642;7.668;2022-12-05T03:39:47;7.57;;;4.68;;
22421;SDS011;11378;51.642;7.668;2022-12-05T03:42:16;5.23;;;4.23;;
22421;SDS011;11378;51.642;7.668;2022-12-05T03:49:42;5.80;;;4.32;;
22421;SDS011;11378;51.642;7.668;2022-12-05T03:52:12;5.78;;;4.35;;
22421;SDS011;11378;51.642;7.668;2022-12-05T03:54:42;6.35;;;4.70;;
22421;SDS011;11378;51.642;7.668;2022-12-05T04:02:22;6.47;;;4.10;;
22421;SDS011;11378;51.642;7.668;2022-12-05T04:04:57;6.15;;;3.97;;
22421;SDS011;11378;51.642;7.668;2022-12-05T04:07:24;6.07;;;4.32;;
22421;SDS011;11378;51.642;7.668;2022-12-05T04:09:54;6.65;;;4.90;;
22421;SDS011;11378;51.642;7.668;2022-12-05T04:12:22;5.63;;;4.05;;
22421;SDS011;11378;51.642;7.668;2022-12-05T04:14:51;6.55;;;4.78;;
22421;SDS011;11378;51.642;7.668;2022-12-05T04:17:35;5.95;;;4.43;;
22421;SDS011;11378;51.642;7.668;2022-12-05T04:22:49;7.00;;;4.40;;
22421;SDS011;11378;51.642;7.668;2022-12-05T04:25:16;6.88;;;5.10;;
22421;SDS011;11378;51.642;7.668;2022-12-05T04:28:03;5.55;;;4.00;;
22421;SDS011;11378;51.642;7.668;2022-12-05T04:30:33;5.38;;;3.95;;
22421;SDS011;11378;51.642;7.668;2022-12-05T04:33:04;5.80;;;4.20;;
22421;SDS011;11378;51.642;7.668;2022-12-05T04:35:33;5.18;;;3.95;;
22421;SDS011;11378;51.642;7.668;2022-12-05T04:38:03;6.55;;;4.47;;
22421;SDS011;11378;51.642;7.668;2022-12-05T04:40:32;6.20;;;4.45;;
22421;SDS011;11378;51.642;7.668;2022-12-05T04:43:00;5.93;;;4.25;;
22421;SDS011;11378;51.642;7.668;2022-12-05T04:45:28;6.03;;;4.28;;
22421;SDS011;11378;51.642;7.668;2022-12-05T04:47:56;5.95;;;4.10;;
22421;SDS011;11378;51.642;7.668;2022-12-05T04:50:25;6.47;;;4.70;;
22421;SDS011;11378;51.642;7.668;2022-12-05T04:52:52;6.75;;;4.75;;
22421;SDS011;11378;51.642;7.668;2022-12-05T04:55:21;6.07;;;4.40;;
22421;SDS011;11378;51.642;7.668;2022-12-05T05:00:22;5.28;;;4.13;;
22421;SDS011;11378;51.642;7.668;2022-12-05T05:02:58;7.03;;;4.78;;
22421;SDS011;11378;51.642;7.668;2022-12-05T05:05:25;6.45;;;4.32;;
22421;SDS011;11378;51.642;7.668;2022-12-05T05:07:53;4.88;;;3.83;;
22421;SDS011;11378;51.642;7.668;2022-12-05T05:10:29;6.18;;;4.35;;
22421;SDS011;11378;51.642;7.668;2022-12-05T05:12:56;5.97;;;4.35;;
22421;SDS011;11378;51.642;7.668;2022-12-05T05:15:22;6.18;;;4.53;;
22421;SDS011;11378;51.642;7.668;2022-12-05T05:17:48;5.80;;;4.38;;
22421;SDS011;11378;51.642;7.668;2022-12-05T05:20:14;5.80;;;4.13;;
22421;SDS011;11378;51.642;7.668;2022-12-05T05:22:52;5.82;;;4.13;;
22421;SDS011;11378;51.642;7.668;2022-12-05T05:25:19;6.38;;;4.18;;
22421;SDS011;11378;51.642;7.668;2022-12-05T05:27:49;6.20;;;4.55;;
22421;SDS011;11378;51.642;7.668;2022-12-05T05:30:17;5.60;;;4.35;;
22421;SDS011;11378;51.642;7.668;2022-12-05T05:32:44;5.80;;;4.07;;
22421;SDS011;11378;51.642;7.668;2022-12-05T05:35:11;7.78;;;4.55;;
22421;SDS011;11378;51.642;7.668;2022-12-05T05:37:37;5.90;;;4.10;;
22421;SDS011;11378;51.642;7.668;2022-12-05T05:40:05;6.80;;;4.72;;
22421;SDS011;11378;51.642;7.668;2022-12-05T05:42:31;6.38;;;4.20;;
22421;SDS011;11378;51.642;7.668;2022-12-05T05:44:58;5.72;;;4.25;;
22421;SDS011;11378;51.642;7.668;2022-12-05T05:47:24;5.70;;;4.18;;
22421;SDS011;11378;51.642;7.668;2022-12-05T05:49:50;5.90;;;4.30;;
22421;SDS011;11378;51.642;7.668;2022-12-05T05:52:17;7.90;;;4.20;;
22421;SDS011;11378;51.642;7.668;2022-12-05T05:54:43;5.35;;;3.80;;
22421;SDS011;11378;51.642;7.668;2022-12-05T05:57:10;6.82;;;4.40;;
22421;SDS011;11378;51.642;7.668;2022-12-05T05:59:36;5.15;;;3.80;;
22421;SDS011;11378;51.642;7.668;2022-12-05T06:02:02;7.00;;;4.57;;
22421;SDS011;11378;51.642;7.668;2022-12-05T06:04:29;6.57;;;4.20;;
22421;SDS011;11378;51.642;7.668;2022-12-05T06:06:55;5.63;;;3.95;;
22421;SDS011;11378;51.642;7.668;2022-12-05T06:09:21;6.78;;;4.38;;
22421;SDS011;11378;51.642;7.668;2022-12-05T06:11:48;6.03;;;4.15;;
22421;SDS011;11378;51.642;7.668;2022-12-05T06:14:14;6.40;;;4.28;;
22421;SDS011;11378;51.642;7.668;2022-12-05T06:16:41;5.45;;;4.18;;
22421;SDS011;11378;51.642;7.668;2022-12-05T06:19:07;4.95;;;3.95;;
22421;SDS011;11378;51.642;7.668;2022-12-05T06:21:33;5.45;;;4.15;;
22421;SDS011;11378;51.642;7.668;2022-12-05T06:24:00;6.15;;;3.97;;
22421;SDS011;11378;51.642;7.668;2022-12-05T06:26:26;6.18;;;4.13;;
22421;SDS011;11378;51.642;7.668;2022-12-05T06:28:52;4.78;;;4.07;;
22421;SDS011;11378;51.642;7.668;2022-12-05T06:31:21;5.60;;;4.05;;
22421;SDS011;11378;51.642;7.668;2022-12-05T06:33:48;5.70;;;4.25;;
22421;SDS011;11378;51.642;7.668;2022-12-05T06:36:16;5.53;;;4.15;;
22421;SDS011;11378;51.642;7.668;2022-12-05T06:38:42;5.57;;;4.40;;
22421;SDS011;11378;51.642;7.668;2022-12-05T06:41:11;5.25;;;3.78;;
22421;SDS011;11378;51.642;7.668;2022-12-05T06:43:39;5.28;;;3.95;;
22421;SDS011;11378;51.642;7.668;2022-12-05T06:46:06;5.18;;;4.05;;
22421;SDS011;11378;51.642;7.668;2022-12-05T06:48:32;5.32;;;3.78;;
22421;SDS011;11378;51.642;7.668;2022-12-05T06:50:58;5.65;;;3.92;;
22421;SDS011;11378;51.642;7.668;2022-12-05T06:53:25;4.78;;;3.70;;
22421;SDS011;11378;51.642;7.668;2022-12-05T06:55:59;5.18;;;3.78;;
22421;SDS011;11378;51.642;7.668;2022-12-05T06:58:25;4.63;;;3.55;;
22421;SDS011;11378;51.642;7.668;2022-12-05T07:00:52;5.45;;;4.00;;
22421;SDS011;11378;51.642;7.668;2022-12-05T07:03:37;4.85;;;3.72;;
22421;SDS011;11378;51.642;7.668;2022-12-05T07:06:04;5.53;;;3.72;;
22421;SDS011;11378;51.642;7.668;2022-12-05T07:08:31;5.55;;;4.07;;
22421;SDS011;11378;51.642;7.668;2022-12-05T07:10:57;5.32;;;4.00;;
22421;SDS011;11378;51.642;7.668;2022-12-05T07:13:24;5.53;;;3.97;;
22421;SDS011;11378;51.642;7.668;2022-12-05T07:15:50;5.93;;;4.20;;
22421;SDS011;11378;51.642;7.668;2022-12-05T07:18:17;5.38;;;3.80;;
22421;SDS011;11378;51.642;7.668;2022-12-05T07:20:43;5.15;;;3.95;;
22421;SDS011;11378;51.642;7.668;2022-12-05T07:23:10;6.38;;;4.10;;
22421;SDS011;11378;51.642;7.668;2022-12-05T07:25:39;5.30;;;3.90;;
22421;SDS011;11378;51.642;7.668;2022-12-05T07:28:06;5.35;;;3.88;;
22421;SDS011;11378;51.642;7.668;2022-12-05T07:30:33;5.05;;;3.80;;
22421;SDS011;11378;51.642;7.668;2022-12-05T07:33:00;5.18;;;4.00;;
22421;SDS011;11378;51.642;7.668;2022-12-05T07:35:26;4.47;;;3.53;;
22421;SDS011;11378;51.642;7.668;2022-12-05T07:37:52;4.68;;;3.60;;
22421;SDS011;11378;51.642;7.668;2022-12-05T07:40:19;5.20;;;3.80;;
22421;SDS011;11378;51.642;7.668;2022-12-05T07:42:49;5.60;;;4.15;;
22421;SDS011;11378;51.642;7.668;2022-12-05T07:45:20;4.97;;;3.70;;
22421;SDS011;11378;51.642;7.668;2022-12-05T07:47:47;5.47;;;3.90;;
22421;SDS011;11378;51.642;7.668;2022-12-05T07:50:13;4.85;;;3.80;;
22421;SDS011;11378;51.642;7.668;2022-12-05T07:52:40;5.68;;;4.07;;
22421;SDS011;11378;51.642;7.668;2022-12-05T07:55:06;5.30;;;4.18;;
22421;SDS011;11378;51.642;7.668;2022-12-05T07:57:33;5.47;;;4.05;;
22421;SDS011;11378;51.642;7.668;2022-12-05T07:59:59;7.40;;;5.00;;
22421;SDS011;11378;51.642;7.668;2022-12-05T08:02:25;6.82;;;5.00;;
22421;SDS011;11378;51.642;7.668;2022-12-05T08:04:52;8.63;;;5.40;;
22421;SDS011;11378;51.642;7.668;2022-12-05T08:07:18;8.05;;;5.28;;
22421;SDS011;11378;51.642;7.668;2022-12-05T08:09:44;7.43;;;5.40;;
22421;SDS011;11378;51.642;7.668;2022-12-05T08:12:11;9.32;;;5.45;;
22421;SDS011;11378;51.642;7.668;2022-12-05T08:14:37;7.38;;;5.28;;
22421;SDS011;11378;51.642;7.668;2022-12-05T08:17:04;7.78;;;5.47;;
22421;SDS011;11378;51.642;7.668;2022-12-05T08:19:30;8.52;;;5.65;;
22421;SDS011;11378;51.642;7.668;2022-12-05T08:21:56;6.72;;;5.13;;
22421;SDS011;11378;51.642;7.668;2022-12-05T08:24:23;8.40;;;5.93;;
22421;SDS011;11378;51.642;7.668;2022-12-05T08:26:49;7.88;;;5.57;;
22421;SDS011;11378;51.642;7.668;2022-12-05T08:29:18;9.88;;;5.55;;
22421;SDS011;11378;51.642;7.668;2022-12-05T08:31:46;8.00;;;5.55;;
22421;SDS011;11378;51.642;7.668;2022-12-05T08:34:13;8.65;;;5.57;;
22421;SDS011;11378;51.642;7.668;2022-12-05T08:36:40;6.95;;;5.40;;
22421;SDS011;11378;51.642;7.668;2022-12-05T08:39:07;6.28;;;4.85;;
22421;SDS011;11378;51.642;7.668;2022-12-05T08:41:36;8.00;;;5.43;;
22421;SDS011;11378;51.642;7.668;2022-12-05T08:44:03;9.27;;;5.72;;
22421;SDS011;11378;51.642;7.668;2022-12-05T08:46:31;8.60;;;5.50;;
22421;SDS011;11378;51.642;7.668;2022-12-05T08:48:58;7.72;;;5.40;;
22421;SDS011;11378;51.642;7.668;2022-12-05T08:51:24;8.07;;;5.15;;
22421;SDS011;11378;51.642;7.668;2022-12-05T08:53:51;6.90;;;5.13;;
22421;SDS011;11378;51.642;7.668;2022-12-05T08:56:17;7.82;;;5.78;;
22421;SDS011;11378;51.642;7.668;2022-12-05T08:58:44;7.45;;;5.32;;
22421;SDS011;11378;51.642;7.668;2022-12-05T09:01:14;8.68;;;5.50;;
22421;SDS011;11378;51.642;7.668;2022-12-05T09:03:41;7.82;;;5.43;;
22421;SDS011;11378;51.642;7.668;2022-12-05T09:06:11;7.28;;;5.63;;
22421;SDS011;11378;51.642;7.668;2022-12-05T09:08:38;7.50;;;5.03;;
22421;SDS011;11378;51.642;7.668;2022-12-05T09:11:05;7.72;;;5.20;;
22421;SDS011;11378;51.642;7.668;2022-12-05T09:13:32;8.63;;;5.55;;
22421;SDS011;11378;51.642;7.668;2022-12-05T09:16:03;7.03;;;5.15;;
22421;SDS011;11378;51.642;7.668;2022-12-05T09:18:29;5.85;;;4.63;;
22421;SDS011;11378;51.642;7.668;2022-12-05T09:20:56;8.10;;;5.13;;
22421;SDS011;11378;51.642;7.668;2022-12-05T09:23:22;7.63;;;5.18;;
22421;SDS011;11378;51.642;7.668;2022-12-05T09:25:52;7.47;;;4.95;;
22421;SDS011;11378;51.642;7.668;2022-12-05T09:28:22;6.95;;;4.72;;
22421;SDS011;11378;51.642;7.668;2022-12-05T09:30:55;7.70;;;5.05;;
22421;SDS011;11378;51.642;7.668;2022-12-05T09:33:22;6.75;;;4.95;;
22421;SDS011;11378;51.642;7.668;2022-12-05T09:35:48;7.93;;;5.68;;
22421;SDS011;11378;51.642;7.668;2022-12-05T09:38:15;7.38;;;5.40;;
22421;SDS011;11378;51.642;7.668;2022-12-05T09:40:41;6.05;;;4.82;;
22421;SDS011;11378;51.642;7.668;2022-12-05T09:43:08;6.47;;;5.05;;
22421;SDS011;11378;51.642;7.668;2022-12-05T09:45:42;6.63;;;4.93;;
22421;SDS011;11378;51.642;7.668;2022-12-05T09:48:15;6.15;;;4.50;;
22421;SDS011;11378;51.642;7.668;2022-12-05T09:50:52;5.72;;;4.75;;
22421;SDS011;11378;51.642;7.668;2022-12-05T09:53:27;6.85;;;5.20;;
22421;SDS011;11378;51.642;7.668;2022-12-05T10:01:22;7.05;;;5.05;;
22421;SDS011;11378;51.642;7.668;2022-12-05T10:06:38;6.68;;;5.07;;
22421;SDS011;11378;51.642;7.668;2022-12-05T10:09:09;7.30;;;5.03;;
22421;SDS011;11378;51.642;7.668;2022-12-05T10:12:23;5.65;;;4.57;;
22421;SDS011;11378;51.642;7.668;2022-12-05T10:14:35;6.32;;;4.80;;
22421;SDS011;11378;51.642;7.668;2022-12-05T10:17:15;6.22;;;4.88;;
22421;SDS011;11378;51.642;7.668;2022-12-05T10:19:44;6.70;;;4.60;;
22421;SDS011;11378;51.642;7.668;2022-12-05T10:22:14;6.35;;;4.75;;
22421;SDS011;11378;51.642;7.668;2022-12-05T10:24:54;6.60;;;4.60;;
22421;SDS011;11378;51.642;7.668;2022-12-05T10:27:29;6.15;;;4.63;;
22421;SDS011;11378;51.642;7.668;2022-12-05T10:30:05;6.30;;;4.53;;
22421;SDS011;11378;51.642;7.668;2022-12-05T10:32:35;6.45;;;4.50;;
22421;SDS011;11378;51.642;7.668;2022-12-05T10:35:13;8.13;;;5.45;;
22421;SDS011;11378;51.642;7.668;2022-12-05T10:37:41;6.72;;;4.65;;
22421;SDS011;11378;51.642;7.668;2022-12-05T10:40:10;4.72;;;3.63;;
22421;SDS011;11378;51.642;7.668;2022-12-05T10:42:37;5.60;;;4.40;;
22421;SDS011;11378;51.642;7.668;2022-12-05T10:45:06;5.80;;;4.47;;
22421;SDS011;11378;51.642;7.668;2022-12-05T10:47:33;5.65;;;4.43;;
22421;SDS011;11378;51.642;7.668;2022-12-05T10:50:12;6.47;;;4.40;;
22421;SDS011;11378;51.642;7.668;2022-12-05T10:52:42;6.63;;;4.65;;
22421;SDS011;11378;51.642;7.668;2022-12-05T10:55:12;6.07;;;4.63;;
22421;SDS011;11378;51.642;7.668;2022-12-05T10:57:39;5.85;;;4.68;;
22421;SDS011;11378;51.642;7.668;2022-12-05T11:00:09;6.15;;;4.72;;
22421;SDS011;11378;51.642;7.668;2022-12-05T11:02:37;6.28;;;4.75;;
22421;SDS011;11378;51.642;7.668;2022-12-05T11:05:05;6.07;;;4.72;;
22421;SDS011;11378;51.642;7.668;2022-12-05T11:07:33;6.07;;;4.75;;
22421;SDS011;11378;51.642;7.668;2022-12-05T11:10:00;6.38;;;4.60;;
22421;SDS011;11378;51.642;7.668;2022-12-05T11:12:37;6.25;;;4.70;;
22421;SDS011;11378;51.642;7.668;2022-12-05T11:17:50;6.10;;;4.60;;
22421;SDS011;11378;51.642;7.668;2022-12-05T11:22:44;7.22;;;4.95;;
22421;SDS011;11378;51.642;7.668;2022-12-05T11:25:29;6.05;;;4.55;;
22421;SDS011;11378;51.642;7.668;2022-12-05T11:27:57;5.75;;;4.38;;
22421;SDS011;11378;51.642;7.668;2022-12-05T11:30:25;5.93;;;4.72;;
22421;SDS011;11378;51.642;7.668;2022-12-05T11:33:17;5.07;;;3.53;;
22421;SDS011;11378;51.642;7.668;2022-12-05T11:35:45;6.30;;;4.53;;
22421;SDS011;11378;51.642;7.668;2022-12-05T11:38:12;6.03;;;4.35;;
22421;SDS011;11378;51.642;7.668;2022-12-05T11:40:54;5.95;;;4.57;;
22421;SDS011;11378;51.642;7.668;2022-12-05T11:46:31;5.15;;;4.22;;
22421;SDS011;11378;51.642;7.668;2022-12-05T11:49:05;5.40;;;4.20;;
22421;SDS011;11378;51.642;7.668;2022-12-05T11:59:07;5.88;;;4.28;;
22421;SDS011;11378;51.642;7.668;2022-12-05T12:06:32;6.50;;;4.43;;
22421;SDS011;11378;51.642;7.668;2022-12-05T12:22:29;5.55;;;4.30;;
22421;SDS011;11378;51.642;7.668;2022-12-05T12:28:29;6.32;;;4.43;;
22421;SDS011;11378;51.642;7.668;2022-12-05T12:30:39;6.40;;;4.55;;
22421;SDS011;11378;51.642;7.668;2022-12-05T12:33:16;5.70;;;4.38;;
22421;SDS011;11378;51.642;7.668;2022-12-05T12:35:50;4.85;;;4.05;;
22421;SDS011;11378;51.642;7.668;2022-12-05T12:38:38;4.72;;;3.70;;
22421;SDS011;11378;51.642;7.668;2022-12-05T12:51:32;6.72;;;4.50;;
22421;SDS011;11378;51.642;7.668;2022-12-05T12:54:08;6.03;;;4.65;;
22421;SDS011;11378;51.642;7.668;2022-12-05T13:01:54;4.85;;;3.90;;
22421;SDS011;11378;51.642;7.668;2022-12-05T13:04:23;4.95;;;3.95;;
22421;SDS011;11378;51.642;7.668;2022-12-05T13:07:00;5.40;;;4.25;;
22421;SDS011;11378;51.642;7.668;2022-12-05T13:09:42;8.82;;;6.78;;
22421;SDS011;11378;51.642;7.668;2022-12-05T13:12:10;6.95;;;5.45;;
22421;SDS011;11378;51.642;7.668;2022-12-05T13:14:38;6.18;;;5.43;;
22421;SDS011;11378;51.642;7.668;2022-12-05T13:17:07;5.45;;;4.32;;
22421;SDS011;11378;51.642;7.668;2022-12-05T13:19:40;6.80;;;5.47;;
22421;SDS011;11378;51.642;7.668;2022-12-05T13:22:07;6.72;;;5.38;;
22421;SDS011;11378;51.642;7.668;2022-12-05T13:24:34;7.05;;;5.47;;
22421;SDS011;11378;51.642;7.668;2022-12-05T13:27:04;6.68;;;5.50;;
22421;SDS011;11378;51.642;7.668;2022-12-05T13:29:41;8.27;;;5.13;;
22421;SDS011;11378;51.642;7.668;2022-12-05T13:35:22;8.02;;;4.88;;
22421;SDS011;11378;51.642;7.668;2022-12-05T13:38:18;6.05;;;4.63;;
22421;SDS011;11378;51.642;7.668;2022-12-05T13:41:04;7.32;;;5.15;;
22421;SDS011;11378;51.642;7.668;2022-12-05T13:43:50;6.75;;;5.25;;
22421;SDS011;11378;51.642;7.668;2022-12-05T13:46:33;6.78;;;5.40;;
22421;SDS011;11378;51.642;7.668;2022-12-05T13:49:02;6.22;;;5.05;;
22421;SDS011;11378;51.642;7.668;2022-12-05T13:51:40;5.57;;;4.90;;
22421;SDS011;11378;51.642;7.668;2022-12-05T13:54:26;6.65;;;4.78;;
22421;SDS011;11378;51.642;7.668;2022-12-05T13:56:54;6.63;;;4.78;;
22421;SDS011;11378;51.642;7.668;2022-12-05T14:04:52;5.78;;;4.53;;
22421;SDS011;11378;51.642;7.668;2022-12-05T14:07:38;6.13;;;4.47;;
22421;SDS011;11378;51.642;7.668;2022-12-05T14:10:06;5.00;;;4.00;;
22421;SDS011;11378;51.642;7.668;2022-12-05T14:20:45;6.07;;;4.65;;
22421;SDS011;11378;51.642;7.668;2022-12-05T14:28:46;5.10;;;4.30;;
22421;SDS011;11378;51.642;7.668;2022-12-05T14:33:40;7.25;;;4.10;;
22421;SDS011;11378;51.642;7.668;2022-12-05T14:36:11;5.25;;;4.30;;
22421;SDS011;11378;51.642;7.668;2022-12-05T14:38:39;7.10;;;4.00;;
22421;SDS011;11378;51.642;7.668;2022-12-05T14:41:48;5.00;;;4.50;;
22421;SDS011;11378;51.642;7.668;2022-12-05T14:43:55;5.30;;;4.10;;
22421;SDS011;11378;51.642;7.668;2022-12-05T14:46:28;5.13;;;3.90;;
22421;SDS011;11378;51.642;7.668;2022-12-05T14:48:56;4.75;;;4.20;;
22421;SDS011;11378;51.642;7.668;2022-12-05T14:54:06;5.40;;;4.47;;
22421;SDS011;11378;51.642;7.668;2022-12-05T14:56:38;5.68;;;4.32;;
22421;SDS011;11378;51.642;7.668;2022-12-05T15:01:51;4.85;;;4.35;;
22421;SDS011;11378;51.642;7.668;2022-12-05T15:04:26;3.47;;;2.93;;
22421;SDS011;11378;51.642;7.668;2022-12-05T15:07:08;4.65;;;4.10;;
22421;SDS011;11378;51.642;7.668;2022-12-05T15:09:40;4.25;;;3.83;;
22421;SDS011;11378;51.642;7.668;2022-12-05T15:12:14;5.47;;;4.00;;
22421;SDS011;11378;51.642;7.668;2022-12-05T15:15:04;4.43;;;3.63;;
22421;SDS011;11378;51.642;7.668;2022-12-05T15:17:35;5.35;;;3.85;;
22421;SDS011;11378;51.642;7.668;2022-12-05T15:20:07;4.80;;;3.85;;
22421;SDS011;11378;51.642;7.668;2022-12-05T15:22:39;4.63;;;3.80;;
22421;SDS011;11378;51.642;7.668;2022-12-05T15:25:40;3.72;;;3.40;;
22421;SDS011;11378;51.642;7.668;2022-12-05T15:30:26;4.47;;;3.80;;
22421;SDS011;11378;51.642;7.668;2022-12-05T15:32:53;4.53;;;3.67;;
22421;SDS011;11378;51.642;7.668;2022-12-05T15:35:21;5.07;;;3.95;;
22421;SDS011;11378;51.642;7.668;2022-12-05T15:37:49;4.53;;;3.50;;
22421;SDS011;11378;51.642;7.668;2022-12-05T15:40:18;4.78;;;3.70;;
22421;SDS011;11378;51.642;7.668;2022-12-05T15:42:47;4.55;;;4.05;;
22421;SDS011;11378;51.642;7.668;2022-12-05T15:47:40;8.20;;;5.15;;
22421;SDS011;11378;51.642;7.668;2022-12-05T15:50:14;7.40;;;4.93;;
22421;SDS011;11378;51.642;7.668;2022-12-05T15:52:53;5.40;;;4.28;;
22421;SDS011;11378;51.642;7.668;2022-12-05T15:55:26;8.18;;;4.63;;
22421;SDS011;11378;51.642;7.668;2022-12-05T15:58:03;5.40;;;4.50;;
22421;SDS011;11378;51.642;7.668;2022-12-05T16:00:31;6.85;;;4.57;;
22421;SDS011;11378;51.642;7.668;2022-12-05T16:03:05;6.78;;;5.00;;
22421;SDS011;11378;51.642;7.668;2022-12-05T16:05:37;8.55;;;4.85;;
22421;SDS011;11378;51.642;7.668;2022-12-05T16:08:04;5.72;;;4.63;;
22421;SDS011;11378;51.642;7.668;2022-12-05T16:10:32;7.55;;;4.50;;
22421;SDS011;11378;51.642;7.668;2022-12-05T16:13:03;8.82;;;5.10;;
22421;SDS011;11378;51.642;7.668;2022-12-05T16:15:30;5.72;;;5.00;;
22421;SDS011;11378;51.642;7.668;2022-12-05T16:17:57;6.55;;;4.85;;
22421;SDS011;11378;51.642;7.668;2022-12-05T16:20:31;6.70;;;4.93;;
22421;SDS011;11378;51.642;7.668;2022-12-05T16:23:18;5.75;;;4.47;;
22421;SDS011;11378;51.642;7.668;2022-12-05T16:25:47;14.23;;;5.13;;
22421;SDS011;11378;51.642;7.668;2022-12-05T16:28:15;5.88;;;4.55;;
22421;SDS011;11378;51.642;7.668;2022-12-05T16:30:58;7.03;;;4.70;;
22421;SDS011;11378;51.642;7.668;2022-12-05T16:33:25;7.28;;;5.18;;
22421;SDS011;11378;51.642;7.668;2022-12-05T16:35:52;7.45;;;4.57;;
22421;SDS011;11378;51.642;7.668;2022-12-05T16:38:22;5.35;;;4.70;;
22421;SDS011;11378;51.642;7.668;2022-12-05T16:41:03;6.35;;;4.80;;
22421;SDS011;11378;51.642;7.668;2022-12-05T16:45:59;6.45;;;4.50;;
22421;SDS011;11378;51.642;7.668;2022-12-05T16:48:33;7.07;;;4.38;;
22421;SDS011;11378;51.642;7.668;2022-12-05T16:53:39;4.80;;;4.30;;
22421;SDS011;11378;51.642;7.668;2022-12-05T16:56:06;7.93;;;4.60;;
22421;SDS011;11378;51.642;7.668;2022-12-05T16:58:36;6.07;;;5.00;;
22421;SDS011;11378;51.642;7.668;2022-12-05T17:01:04;5.78;;;4.60;;
22421;SDS011;11378;51.642;7.668;2022-12-05T17:03:31;5.35;;;4.45;;
22421;SDS011;11378;51.642;7.668;2022-12-05T17:05:57;5.45;;;4.32;;
22421;SDS011;11378;51.642;7.668;2022-12-05T17:08:24;5.65;;;4.28;;
22421;SDS011;11378;51.642;7.668;2022-12-05T17:10:51;5.75;;;4.55;;
22421;SDS011;11378;51.642;7.668;2022-12-05T17:13:17;5.28;;;4.55;;
22421;SDS011;11378;51.642;7.668;2022-12-05T17:15:44;5.70;;;4.65;;
22421;SDS011;11378;51.642;7.668;2022-12-05T17:18:11;6.07;;;4.63;;
22421;SDS011;11378;51.642;7.668;2022-12-05T17:20:39;5.18;;;4.25;;
22421;SDS011;11378;51.642;7.668;2022-12-05T17:23:09;5.72;;;4.60;;
22421;SDS011;11378;51.642;7.668;2022-12-05T17:28:02;4.90;;;4.35;;
22421;SDS011;11378;51.642;7.668;2022-12-05T17:30:29;5.60;;;4.70;;
22421;SDS011;11378;51.642;7.668;2022-12-05T17:32:58;4.90;;;3.93;;